createdAt,value
2023-04-18T00:00:34.438Z,18.20
2023-04-18T00:01:33.451Z,19.50
2023-04-18T00:02:33.595Z,18.30
2023-04-18T00:03:33.615Z,18.30
2023-04-18T00:04:33.464Z,17.70
2023-04-18T00:05:33.429Z,18.90
2023-04-18T00:06:34.325Z,26.60
2023-04-18T00:07:33.435Z,16.70
2023-04-18T00:08:33.383Z,17.00
2023-04-18T00:09:33.395Z,17.40
2023-04-18T00:10:33.367Z,16.80
2023-04-18T00:11:33.330Z,17.90
2023-04-18T00:12:34.328Z,19.00
2023-04-18T00:13:33.328Z,17.50
2023-04-18T00:14:33.284Z,16.20
2023-04-18T00:15:33.270Z,17.30
2023-04-18T00:16:33.449Z,17.60
2023-04-18T00:17:33.281Z,19.10
2023-04-18T00:18:34.191Z,19.60
2023-04-18T00:19:33.229Z,15.60
2023-04-18T00:20:33.211Z,15.50
2023-04-18T00:21:33.235Z,18.70
2023-04-18T00:22:33.193Z,18.00
2023-04-18T00:23:34.101Z,18.60
2023-04-18T00:24:33.196Z,17.60
2023-04-18T00:25:33.202Z,18.10
2023-04-18T00:26:33.196Z,26.30
2023-04-18T00:27:33.148Z,19.60
2023-04-18T00:28:33.146Z,18.00
2023-04-18T00:29:34.054Z,20.60
2023-04-18T00:30:33.145Z,18.20
2023-04-18T00:31:33.098Z,17.40
2023-04-18T00:32:33.116Z,19.60
2023-04-18T00:33:33.133Z,17.70
2023-04-18T00:34:33.064Z,17.40
2023-04-18T00:35:33.990Z,17.00
2023-04-18T00:36:33.027Z,19.20
2023-04-18T00:37:33.083Z,20.60
2023-04-18T00:38:33.007Z,18.40
2023-04-18T00:39:33.011Z,18.80
2023-04-18T00:40:32.974Z,18.60
2023-04-18T00:41:33.900Z,16.30
2023-04-18T00:42:32.953Z,20.90
2023-04-18T00:43:33.032Z,17.20
2023-04-18T00:44:32.925Z,19.30
2023-04-18T00:45:32.908Z,16.40
2023-04-18T00:46:54.847Z,18.20
2023-04-18T00:47:33.052Z,18.60
2023-04-18T00:48:32.895Z,18.70
2023-04-18T00:49:32.846Z,20.30
2023-04-18T00:50:32.854Z,19.60
2023-04-18T00:51:32.833Z,18.10
2023-04-18T00:52:33.778Z,17.30
2023-04-18T00:53:32.794Z,18.20
2023-04-18T00:54:32.801Z,17.50
2023-04-18T00:55:32.802Z,19.60
2023-04-18T00:56:32.797Z,17.30
2023-04-18T00:57:33.673Z,21.50
2023-04-18T00:58:32.767Z,18.80
2023-04-18T00:59:32.737Z,18.40
2023-04-18T01:00:32.718Z,17.70
2023-04-18T01:01:32.794Z,20.40
2023-04-18T01:02:33.724Z,16.90
2023-04-18T01:03:32.781Z,19.50
2023-04-18T01:04:32.834Z,16.70
2023-04-18T01:05:32.679Z,20.40
2023-04-18T01:06:32.679Z,18.40
2023-04-18T01:07:32.640Z,18.60
2023-04-18T01:08:33.555Z,17.80
2023-04-18T01:09:32.656Z,18.20
2023-04-18T01:10:32.622Z,33.50
2023-04-18T01:11:32.653Z,16.30
2023-04-18T01:12:32.570Z,18.30
2023-04-18T01:13:32.550Z,19.60
2023-04-18T01:14:33.463Z,19.10
2023-04-18T01:15:32.591Z,17.10
2023-04-18T01:16:32.545Z,17.50
2023-04-18T01:17:33.500Z,15.70
2023-04-18T01:18:32.514Z,16.70
2023-04-18T01:19:33.422Z,19.70
2023-04-18T01:20:32.477Z,16.10
2023-04-18T01:21:32.514Z,16.80
2023-04-18T01:22:32.444Z,17.20
2023-04-18T01:23:32.440Z,16.20
2023-04-18T01:24:33.348Z,17.10
2023-04-18T01:25:33.379Z,15.20
2023-04-18T01:26:32.388Z,17.40
2023-04-18T01:27:32.393Z,17.10
2023-04-18T01:28:32.356Z,19.10
2023-04-18T01:29:32.344Z,17.60
2023-04-18T01:30:33.272Z,16.20
2023-04-18T01:32:29.844Z,17.70
2023-04-18T01:33:29.784Z,18.00
2023-04-18T01:34:29.817Z,16.70
2023-04-18T01:35:29.758Z,16.70
2023-04-18T01:36:31.646Z,17.60
2023-04-18T01:37:29.725Z,17.00
2023-04-18T01:38:29.767Z,17.70
2023-04-18T01:39:29.700Z,15.80
2023-04-18T01:40:29.698Z,14.10
2023-04-18T01:41:31.593Z,16.00
2023-04-18T01:42:29.709Z,15.60
2023-04-18T01:43:29.707Z,17.10
2023-04-18T01:44:29.665Z,17.70
2023-04-18T01:45:29.760Z,16.30
2023-04-18T01:46:30.636Z,15.10
2023-04-18T01:47:30.630Z,15.90
2023-04-18T01:48:29.644Z,17.30
2023-04-18T01:49:29.642Z,17.40
2023-04-18T01:50:30.763Z,18.60
2023-04-18T01:51:29.603Z,17.30
2023-04-18T01:52:29.571Z,16.70
2023-04-18T01:53:30.506Z,18.80
2023-04-18T01:54:29.741Z,16.90
2023-04-18T01:55:29.525Z,16.90
2023-04-18T01:56:29.512Z,17.80
2023-04-18T01:57:29.517Z,18.70
2023-04-18T01:58:29.648Z,18.50
2023-04-18T01:59:31.357Z,18.40
2023-04-18T02:00:29.510Z,18.70
2023-04-18T02:01:30.424Z,18.60
2023-04-18T02:02:29.741Z,16.10
2023-04-18T02:03:29.528Z,20.50
2023-04-18T02:04:29.426Z,22.30
2023-04-18T02:05:30.331Z,16.90
2023-04-18T02:06:29.407Z,18.20
2023-04-18T02:07:30.322Z,15.00
2023-04-18T02:08:29.395Z,18.90
2023-04-18T02:09:29.366Z,17.50
2023-04-18T02:10:29.326Z,17.30
2023-04-18T02:11:30.276Z,16.10
2023-04-18T02:12:29.303Z,19.60
2023-04-18T02:13:30.233Z,17.50
2023-04-18T02:14:29.294Z,19.60
2023-04-18T02:15:30.290Z,17.60
2023-04-18T02:16:30.260Z,17.60
2023-04-18T02:17:30.237Z,17.60
2023-04-18T02:18:30.198Z,17.50
2023-04-18T02:19:29.218Z,17.60
2023-04-18T02:20:30.163Z,17.40
2023-04-18T02:21:30.193Z,15.80
2023-04-18T02:22:30.231Z,19.30
2023-04-18T02:23:30.110Z,17.20
2023-04-18T02:24:30.499Z,18.40
2023-04-18T02:25:30.104Z,19.10
2023-04-18T02:26:30.166Z,20.20
2023-04-18T02:27:30.326Z,20.20
2023-04-18T02:28:29.130Z,17.10
2023-04-18T02:29:29.101Z,15.40
2023-04-18T02:30:30.034Z,15.80
2023-04-18T02:31:29.107Z,17.90
2023-04-18T02:32:30.061Z,17.50
2023-04-18T02:33:29.060Z,16.20
2023-04-18T02:34:29.265Z,18.80
2023-04-18T02:35:29.995Z,17.10
2023-04-18T02:36:29.069Z,16.30
2023-04-18T02:37:29.956Z,18.80
2023-04-18T02:38:29.924Z,22.40
2023-04-18T02:39:29.979Z,20.70
2023-04-18T02:40:28.975Z,19.50
2023-04-18T02:41:29.903Z,16.80
2023-04-18T02:42:28.912Z,17.20
2023-04-18T02:43:30.839Z,20.70
2023-04-18T02:44:28.900Z,27.90
2023-04-18T02:45:28.888Z,17.80
2023-04-18T02:46:28.901Z,18.60
2023-04-18T02:47:31.725Z,17.40
2023-04-18T02:48:30.378Z,18.80
2023-04-18T02:49:30.708Z,16.40
2023-04-18T02:50:29.798Z,19.40
2023-04-18T02:51:28.791Z,18.10
2023-04-18T02:52:28.784Z,19.60
2023-04-18T02:53:28.809Z,17.60
2023-04-18T02:54:30.026Z,16.90
2023-04-18T02:55:29.728Z,16.10
2023-04-18T02:56:28.732Z,15.50
2023-04-18T02:57:28.749Z,16.70
2023-04-18T02:58:28.770Z,16.60
2023-04-18T02:59:29.648Z,15.10
2023-04-18T03:00:29.660Z,18.40
2023-04-18T03:01:29.695Z,19.10
2023-04-18T03:02:28.799Z,16.10
2023-04-18T03:03:29.606Z,21.10
2023-04-18T03:04:29.624Z,17.50
2023-04-18T03:05:29.560Z,21.70
2023-04-18T03:06:28.593Z,18.10
2023-04-18T03:07:28.600Z,17.40
2023-04-18T03:08:29.569Z,18.90
2023-04-18T03:09:28.582Z,16.60
2023-04-18T03:10:28.589Z,19.50
2023-04-18T03:11:29.569Z,17.40
2023-04-18T03:12:29.505Z,17.40
2023-04-18T03:13:29.465Z,16.10
2023-04-18T03:14:28.652Z,20.30
2023-04-18T03:15:29.447Z,17.30
2023-04-18T03:16:29.554Z,16.80
2023-04-18T03:17:29.486Z,16.90
2023-04-18T03:18:29.469Z,37.60
2023-04-18T03:19:29.422Z,17.10
2023-04-18T03:20:29.417Z,15.50
2023-04-18T03:21:29.360Z,17.50
2023-04-18T03:22:28.669Z,14.50
2023-04-18T03:23:29.393Z,14.10
2023-04-18T03:24:28.520Z,16.40
2023-04-18T03:25:29.419Z,14.40
2023-04-18T03:26:28.419Z,14.50
2023-04-18T03:27:29.296Z,16.40
2023-04-18T03:28:28.387Z,17.80
2023-04-18T03:29:28.330Z,14.40
2023-04-18T03:30:28.325Z,15.80
2023-04-18T03:31:28.378Z,13.90
2023-04-18T03:32:29.248Z,16.00
2023-04-18T03:33:29.266Z,17.70
2023-04-18T03:34:28.306Z,16.50
2023-04-18T03:35:29.369Z,15.90
2023-04-18T03:36:28.282Z,15.80
2023-04-18T03:37:28.281Z,14.10
2023-04-18T03:38:29.182Z,14.60
2023-04-18T03:39:29.181Z,15.20
2023-04-18T03:40:28.288Z,15.40
2023-04-18T03:41:28.221Z,15.50
2023-04-18T03:42:28.196Z,12.90
2023-04-18T03:43:30.032Z,16.60
2023-04-18T03:44:28.139Z,16.50
2023-04-18T03:45:28.125Z,16.00
2023-04-18T03:46:29.153Z,17.10
2023-04-18T03:47:28.147Z,14.70
2023-04-18T03:48:28.117Z,16.60
2023-04-18T03:49:29.050Z,17.30
2023-04-18T03:50:29.043Z,14.80
2023-04-18T03:51:28.030Z,16.30
2023-04-18T03:52:29.845Z,16.60
2023-04-18T03:53:28.219Z,15.60
2023-04-18T03:54:29.057Z,17.30
2023-04-18T03:55:29.051Z,15.90
2023-04-18T03:56:27.996Z,16.10
2023-04-18T03:57:27.992Z,18.00
2023-04-18T03:58:28.332Z,14.90
2023-04-18T03:59:28.071Z,15.80
2023-04-18T04:00:29.815Z,16.80
2023-04-18T04:01:27.952Z,15.40
2023-04-18T04:02:27.995Z,18.60
2023-04-18T04:03:28.996Z,17.00
2023-04-18T04:04:28.057Z,16.10
2023-04-18T04:05:29.802Z,19.20
2023-04-18T04:06:27.869Z,19.40
2023-04-18T04:07:27.897Z,15.80
2023-04-18T04:08:28.312Z,20.30
2023-04-18T04:09:27.883Z,14.50
2023-04-18T04:10:28.846Z,19.10
2023-04-18T04:11:29.706Z,17.10
2023-04-18T04:12:27.779Z,17.80
2023-04-18T04:13:28.834Z,16.40
2023-04-18T04:14:27.843Z,14.70
2023-04-18T04:15:28.739Z,16.60
2023-04-18T04:16:27.870Z,16.90
2023-04-18T04:17:28.788Z,16.50
2023-04-18T04:18:27.717Z,17.90
2023-04-18T04:19:27.903Z,16.70
2023-04-18T04:20:28.668Z,16.50
2023-04-18T04:21:27.688Z,18.10
2023-04-18T04:22:28.661Z,15.60
2023-04-18T04:23:28.594Z,15.30
2023-04-18T04:24:27.674Z,17.20
2023-04-18T04:25:28.565Z,16.50
2023-04-18T04:26:27.637Z,15.90
2023-04-18T04:27:28.534Z,16.10
2023-04-18T04:28:27.728Z,16.60
2023-04-18T04:29:28.508Z,17.70
2023-04-18T04:30:27.588Z,15.80
2023-04-18T04:31:27.797Z,15.60
2023-04-18T04:32:28.476Z,15.40
2023-04-18T04:33:27.531Z,16.10
2023-04-18T04:34:27.547Z,17.70
2023-04-18T04:35:27.509Z,17.30
2023-04-18T04:36:27.497Z,16.40
2023-04-18T04:37:28.454Z,19.00
2023-04-18T04:38:27.609Z,17.20
2023-04-18T04:39:28.434Z,20.00
2023-04-18T04:40:27.450Z,19.20
2023-04-18T04:41:27.412Z,17.50
2023-04-18T04:42:28.353Z,18.90
2023-04-18T04:43:28.408Z,22.20
2023-04-18T04:44:27.396Z,24.90
2023-04-18T04:45:27.444Z,25.00
2023-04-18T04:46:28.390Z,22.20
2023-04-18T04:47:28.335Z,18.50
2023-04-18T04:48:27.360Z,18.50
2023-04-18T04:49:27.485Z,19.00
2023-04-18T04:50:27.342Z,17.50
2023-04-18T04:51:27.297Z,21.90
2023-04-18T04:52:27.794Z,23.30
2023-04-18T04:53:28.292Z,20.90
2023-04-18T04:54:28.191Z,21.20
2023-04-18T04:55:28.271Z,17.50
2023-04-18T04:56:27.260Z,18.50
2023-04-18T04:57:28.177Z,19.90
2023-04-18T04:58:27.213Z,18.70
2023-04-18T04:59:28.168Z,18.30
2023-04-18T05:00:27.190Z,20.10
2023-04-18T05:01:27.337Z,22.20
2023-04-18T05:02:27.241Z,19.20
2023-04-18T05:03:27.297Z,20.10
2023-04-18T05:04:28.260Z,16.90
2023-04-18T05:05:27.149Z,20.60
2023-04-18T05:06:27.119Z,20.80
2023-04-18T05:07:27.117Z,19.90
2023-04-18T05:08:27.099Z,19.70
2023-04-18T05:09:27.282Z,20.50
2023-04-18T05:10:28.109Z,28.60
2023-04-18T05:11:27.747Z,18.40
2023-04-18T05:12:27.089Z,19.60
2023-04-18T05:13:27.022Z,16.60
2023-04-18T05:14:27.097Z,18.20
2023-04-18T05:15:27.068Z,17.70
2023-04-18T05:16:27.960Z,17.60
2023-04-18T05:17:26.995Z,18.70
2023-04-18T05:18:26.966Z,16.50
2023-04-18T05:19:26.948Z,19.80
2023-04-18T05:20:26.950Z,17.80
2023-04-18T05:21:27.877Z,19.10
2023-04-18T05:22:26.894Z,16.30
2023-04-18T05:23:26.942Z,16.40
2023-04-18T05:24:26.930Z,17.70
2023-04-18T05:25:26.915Z,18.30
2023-04-18T05:26:27.821Z,17.80
2023-04-18T05:27:26.853Z,17.10
2023-04-18T05:28:26.872Z,18.10
2023-04-18T05:29:26.905Z,18.10
2023-04-18T05:30:26.810Z,19.20
2023-04-18T05:31:26.857Z,16.90
2023-04-18T05:32:27.705Z,16.60
2023-04-18T05:33:26.753Z,19.70
2023-04-18T05:34:26.790Z,17.10
2023-04-18T05:35:26.786Z,20.20
2023-04-18T05:36:26.738Z,19.50
2023-04-18T05:37:26.762Z,18.30
2023-04-18T05:38:27.634Z,17.70
2023-04-18T05:39:26.707Z,19.00
2023-04-18T05:40:26.705Z,18.60
2023-04-18T05:41:26.674Z,20.10
2023-04-18T05:42:26.640Z,20.10
2023-04-18T05:43:27.593Z,19.50
2023-04-18T05:44:26.654Z,17.30
2023-04-18T05:45:26.625Z,16.70
2023-04-18T05:46:26.719Z,19.00
2023-04-18T05:47:26.705Z,21.10
2023-04-18T05:48:28.480Z,16.60
2023-04-18T05:49:26.569Z,15.90
2023-04-18T05:50:26.560Z,20.10
2023-04-18T05:51:26.610Z,18.80
2023-04-18T05:52:26.674Z,16.40
2023-04-18T05:53:27.467Z,17.90
2023-04-18T05:54:26.493Z,19.00
2023-04-18T05:55:26.475Z,18.80
2023-04-18T05:56:26.559Z,17.80
2023-04-18T05:57:26.462Z,19.10
2023-04-18T05:58:26.471Z,22.60
2023-04-18T05:59:27.364Z,19.10
2023-04-18T06:00:26.460Z,18.60
2023-04-18T06:01:26.449Z,19.90
2023-04-18T06:02:26.572Z,21.50
2023-04-18T06:03:26.569Z,18.10
2023-04-18T06:04:26.505Z,20.10
2023-04-18T06:05:27.873Z,19.80
2023-04-18T06:06:26.352Z,15.80
2023-04-18T06:07:26.349Z,17.40
2023-04-18T06:08:26.310Z,17.10
2023-04-18T06:09:26.326Z,17.30
2023-04-18T06:10:27.246Z,17.20
2023-04-18T06:11:26.306Z,16.90
2023-04-18T06:12:26.273Z,17.90
2023-04-18T06:13:26.306Z,17.40
2023-04-18T06:14:26.227Z,17.10
2023-04-18T06:15:27.260Z,16.70
2023-04-18T06:16:26.319Z,15.50
2023-04-18T06:17:26.452Z,15.90
2023-04-18T06:18:26.228Z,18.10
2023-04-18T06:19:26.256Z,16.10
2023-04-18T06:20:27.120Z,16.90
2023-04-18T06:21:26.241Z,16.70
2023-04-18T06:22:26.177Z,17.20
2023-04-18T06:23:26.136Z,14.70
2023-04-18T06:24:26.136Z,17.10
2023-04-18T06:25:27.168Z,17.80
2023-04-18T06:26:26.179Z,15.40
2023-04-18T06:27:31.208Z,17.50
2023-04-18T06:28:27.599Z,15.10
2023-04-18T06:29:27.073Z,17.10
2023-04-18T06:30:26.197Z,20.80
2023-04-18T06:31:27.076Z,14.10
2023-04-18T06:32:26.165Z,13.80
2023-04-18T06:33:26.040Z,16.60
2023-04-18T06:34:26.036Z,13.30
2023-04-18T06:35:26.740Z,15.50
2023-04-18T06:36:27.014Z,16.20
2023-04-18T06:37:26.037Z,14.30
2023-04-18T06:38:25.992Z,14.80
2023-04-18T06:39:25.939Z,14.80
2023-04-18T06:40:25.939Z,16.20
2023-04-18T06:41:26.867Z,13.20
2023-04-18T06:42:25.951Z,14.60
2023-04-18T06:43:25.913Z,14.60
2023-04-18T06:44:25.939Z,22.70
2023-04-18T06:45:26.323Z,15.10
2023-04-18T06:46:26.005Z,18.00
2023-04-18T06:47:26.815Z,16.80
2023-04-18T06:48:25.871Z,13.30
2023-04-18T06:49:26.723Z,16.50
2023-04-18T06:50:25.897Z,15.70
2023-04-18T06:51:25.886Z,15.30
2023-04-18T06:52:26.795Z,15.50
2023-04-18T06:53:25.778Z,15.80
2023-04-18T06:54:25.904Z,18.90
2023-04-18T06:55:25.741Z,14.00
2023-04-18T06:56:25.758Z,16.30
2023-04-18T06:57:25.734Z,17.70
2023-04-18T06:58:26.663Z,15.20
2023-04-18T06:59:25.713Z,14.20
2023-04-18T07:00:25.761Z,13.00
2023-04-18T07:01:26.707Z,15.40
2023-04-18T07:02:25.718Z,13.50
2023-04-18T07:03:25.711Z,12.90
2023-04-18T07:04:26.797Z,13.50
2023-04-18T07:05:25.703Z,13.70
2023-04-18T07:06:25.620Z,14.50
2023-04-18T07:07:25.637Z,15.60
2023-04-18T07:08:25.611Z,15.40
2023-04-18T07:09:25.569Z,14.00
2023-04-18T07:10:26.607Z,13.20
2023-04-18T07:11:25.547Z,11.80
2023-04-18T07:12:25.559Z,12.90
2023-04-18T07:13:25.570Z,15.50
2023-04-18T07:14:25.499Z,15.20
2023-04-18T07:15:26.516Z,11.10
2023-04-18T07:16:25.594Z,15.30
2023-04-18T07:17:25.510Z,12.40
2023-04-18T07:18:36.800Z,14.00
2023-04-18T07:19:26.990Z,14.10
2023-04-18T07:20:26.387Z,14.20
2023-04-18T07:21:25.443Z,15.20
2023-04-18T07:22:25.465Z,13.00
2023-04-18T07:23:25.589Z,13.90
2023-04-18T07:24:25.377Z,13.50
2023-04-18T07:25:25.381Z,12.50
2023-04-18T07:26:26.259Z,14.50
2023-04-18T07:27:25.332Z,14.20
2023-04-18T07:28:25.389Z,12.70
2023-04-18T07:29:25.324Z,12.80
2023-04-18T07:30:25.331Z,13.90
2023-04-18T07:32:24.194Z,17.70
2023-04-18T07:33:24.165Z,12.70
2023-04-18T07:34:24.164Z,15.20
2023-04-18T07:35:26.826Z,13.40
2023-04-18T07:36:24.165Z,12.70
2023-04-18T07:37:25.050Z,12.90
2023-04-18T07:38:24.096Z,12.60
2023-04-18T07:39:24.122Z,12.40
2023-04-18T07:40:24.068Z,13.10
2023-04-18T07:41:24.057Z,13.10
2023-04-18T07:42:24.988Z,13.50
2023-04-18T07:43:24.011Z,12.70
2023-04-18T07:44:24.034Z,15.70
2023-04-18T07:45:24.077Z,15.60
2023-04-18T07:46:24.006Z,13.60
2023-04-18T07:47:24.995Z,13.10
2023-04-18T07:48:24.002Z,14.50
2023-04-18T07:49:23.955Z,15.40
2023-04-18T07:50:23.935Z,14.50
2023-04-18T07:51:23.941Z,12.90
2023-04-18T07:52:23.923Z,11.00
2023-04-18T07:53:24.906Z,13.70
2023-04-18T07:54:23.930Z,11.20
2023-04-18T07:55:23.881Z,14.00
2023-04-18T07:56:23.856Z,14.50
2023-04-18T07:57:23.878Z,13.90
2023-04-18T07:58:24.807Z,12.90
2023-04-18T07:59:23.857Z,12.40
2023-04-18T08:00:23.801Z,10.90
2023-04-18T08:01:23.789Z,11.40
2023-04-18T08:02:23.883Z,11.30
2023-04-18T08:03:24.817Z,10.70
2023-04-18T08:04:23.872Z,11.40
2023-04-18T08:05:23.817Z,11.40
2023-04-18T08:06:23.756Z,11.50
2023-04-18T08:07:23.724Z,11.60
2023-04-18T08:08:23.730Z,12.70
2023-04-18T08:09:24.623Z,11.00
2023-04-18T08:10:23.871Z,13.40
2023-04-18T08:11:23.659Z,11.90
2023-04-18T08:12:23.751Z,9.80
2023-04-18T08:13:23.630Z,11.30
2023-04-18T08:14:23.622Z,12.10
2023-04-18T08:15:24.546Z,11.60
2023-04-18T08:16:23.634Z,12.20
2023-04-18T08:17:23.671Z,11.50
2023-04-18T08:18:23.627Z,11.50
2023-04-18T08:19:23.570Z,10.80
2023-04-18T08:20:23.585Z,11.60
2023-04-18T08:21:24.476Z,11.80
2023-04-18T08:22:23.525Z,10.70
2023-04-18T08:23:23.564Z,11.00
2023-04-18T08:24:23.488Z,13.20
2023-04-18T08:25:23.504Z,11.10
2023-04-18T08:26:24.468Z,11.30
2023-04-18T08:27:23.449Z,12.90
2023-04-18T08:28:23.489Z,13.10
2023-04-18T08:29:23.429Z,13.50
2023-04-18T08:30:23.425Z,10.10
2023-04-18T08:31:25.004Z,12.30
2023-04-18T08:32:23.928Z,10.90
2023-04-18T08:33:23.428Z,11.90
2023-04-18T08:34:23.379Z,10.90
2023-04-18T08:35:23.374Z,12.70
2023-04-18T08:36:24.301Z,16.30
2023-04-18T08:37:23.337Z,13.00
2023-04-18T08:38:23.345Z,11.50
2023-04-18T08:39:25.183Z,11.50
2023-04-18T08:40:23.321Z,14.20
2023-04-18T08:41:23.319Z,12.00
2023-04-18T08:42:24.196Z,10.60
2023-04-18T08:43:23.276Z,13.20
2023-04-18T08:44:23.263Z,13.00
2023-04-18T08:45:23.239Z,14.80
2023-04-18T08:46:23.334Z,12.60
2023-04-18T08:47:24.237Z,13.70
2023-04-18T08:48:23.263Z,13.40
2023-04-18T08:49:23.212Z,13.10
2023-04-18T08:50:23.212Z,14.30
2023-04-18T08:51:23.184Z,11.70
2023-04-18T08:52:24.103Z,11.40
2023-04-18T08:53:23.192Z,10.70
2023-04-18T08:54:23.849Z,13.10
2023-04-18T08:55:23.126Z,14.30
2023-04-18T08:56:23.155Z,12.30
2023-04-18T08:57:24.042Z,10.80
2023-04-18T08:58:23.068Z,11.30
2023-04-18T08:59:23.082Z,13.10
2023-04-18T09:00:23.046Z,13.40
2023-04-18T09:01:23.116Z,13.00
2023-04-18T09:02:24.054Z,11.60
2023-04-18T09:03:23.124Z,14.30
2023-04-18T09:04:23.081Z,13.70
2023-04-18T09:05:22.965Z,14.20
2023-04-18T09:06:22.992Z,13.80
2023-04-18T09:07:23.951Z,15.00
2023-04-18T09:08:22.988Z,11.10
2023-04-18T09:09:23.002Z,14.60
2023-04-18T09:10:22.914Z,13.00
2023-04-18T09:11:26.860Z,11.70
2023-04-18T09:12:23.907Z,13.20
2023-04-18T09:13:24.558Z,10.80
2023-04-18T09:14:22.927Z,11.20
2023-04-18T09:15:22.887Z,13.60
2023-04-18T09:16:22.981Z,12.20
2023-04-18T09:17:22.895Z,13.30
2023-04-18T09:18:23.791Z,14.00
2023-04-18T09:19:22.835Z,11.60
2023-04-18T09:20:22.786Z,14.10
2023-04-18T09:21:22.789Z,11.20
2023-04-18T09:22:22.871Z,12.00
2023-04-18T09:23:22.760Z,12.90
2023-04-18T09:24:23.948Z,11.20
2023-04-18T09:25:22.720Z,12.80
2023-04-18T09:26:22.784Z,10.80
2023-04-18T09:27:22.731Z,11.10
2023-04-18T09:28:22.719Z,10.40
2023-04-18T09:29:23.633Z,10.20
2023-04-18T09:30:22.693Z,11.60
2023-04-18T09:31:22.739Z,12.40
2023-04-18T09:32:22.696Z,9.60
2023-04-18T09:33:22.666Z,12.30
2023-04-18T09:34:23.733Z,13.00
2023-04-18T09:35:22.609Z,11.00
2023-04-18T09:36:22.643Z,11.60
2023-04-18T09:37:22.604Z,11.30
2023-04-18T09:38:23.469Z,11.90
2023-04-18T09:39:23.472Z,9.80
2023-04-18T09:40:22.515Z,10.00
2023-04-18T09:41:22.548Z,12.50
2023-04-18T09:42:22.517Z,13.70
2023-04-18T09:43:22.528Z,11.30
2023-04-18T09:44:23.425Z,10.30
2023-04-18T09:45:22.486Z,11.20
2023-04-18T09:46:22.549Z,15.00
2023-04-18T09:47:22.453Z,11.00
2023-04-18T09:48:22.458Z,9.40
2023-04-18T09:49:23.338Z,11.00
2023-04-18T09:50:22.409Z,13.50
2023-04-18T09:51:22.416Z,10.70
2023-04-18T09:52:22.386Z,12.50
2023-04-18T09:53:22.368Z,11.90
2023-04-18T09:54:23.335Z,9.00
2023-04-18T09:55:22.356Z,11.70
2023-04-18T09:56:22.320Z,10.30
2023-04-18T09:57:22.344Z,10.80
2023-04-18T09:58:22.299Z,10.70
2023-04-18T09:59:23.242Z,10.40
2023-04-18T10:00:22.276Z,10.30
2023-04-18T10:01:22.302Z,15.30
2023-04-18T10:02:22.400Z,10.00
2023-04-18T10:03:22.407Z,9.80
2023-04-18T10:04:22.303Z,9.40
2023-04-18T10:05:23.230Z,9.00
2023-04-18T10:06:22.193Z,9.40
2023-04-18T10:07:22.201Z,11.20
2023-04-18T10:08:22.209Z,9.50
2023-04-18T10:09:22.187Z,9.10
2023-04-18T10:10:22.143Z,10.50
2023-04-18T10:11:23.090Z,11.40
2023-04-18T10:12:22.145Z,13.20
2023-04-18T10:13:22.111Z,9.50
2023-04-18T10:14:22.124Z,10.00
2023-04-18T10:15:22.107Z,9.80
2023-04-18T10:16:22.113Z,11.80
2023-04-18T10:17:23.029Z,10.80
2023-04-18T10:18:22.083Z,11.10
2023-04-18T10:19:22.058Z,10.30
2023-04-18T10:20:22.046Z,12.10
2023-04-18T10:21:22.042Z,10.00
2023-04-18T10:22:23.040Z,10.20
2023-04-18T10:23:21.983Z,11.60
2023-04-18T10:24:21.973Z,10.30
2023-04-18T10:25:21.964Z,10.40
2023-04-18T10:26:21.953Z,11.20
2023-04-18T10:27:21.963Z,10.40
2023-04-18T10:28:22.866Z,11.40
2023-04-18T10:29:21.927Z,9.90
2023-04-18T10:30:21.933Z,9.60
2023-04-18T10:31:21.931Z,11.90
2023-04-18T10:32:21.870Z,12.20
2023-04-18T10:33:30.380Z,11.00
2023-04-18T10:34:24.295Z,12.40
2023-04-18T10:35:21.848Z,11.70
2023-04-18T10:36:21.824Z,9.00
2023-04-18T10:37:21.823Z,10.60
2023-04-18T10:38:21.789Z,11.60
2023-04-18T10:39:22.739Z,9.90
2023-04-18T10:40:21.801Z,9.30
2023-04-18T10:41:21.751Z,9.80
2023-04-18T10:42:21.763Z,10.10
2023-04-18T10:43:21.744Z,9.20
2023-04-18T10:44:23.058Z,10.70
2023-04-18T10:45:21.712Z,8.40
2023-04-18T10:46:31.685Z,9.40
2023-04-18T10:47:23.284Z,9.80
2023-04-18T10:48:21.687Z,11.50
2023-04-18T10:49:22.886Z,8.60
2023-04-18T10:50:22.582Z,10.40
2023-04-18T10:51:21.625Z,12.90
2023-04-18T10:52:21.619Z,12.60
2023-04-18T10:53:21.630Z,8.90
2023-04-18T10:54:21.646Z,7.80
2023-04-18T10:55:21.578Z,9.20
2023-04-18T10:56:22.589Z,9.40
2023-04-18T10:57:21.578Z,10.50
2023-04-18T10:58:21.548Z,9.90
2023-04-18T10:59:21.525Z,8.40
2023-04-18T11:00:21.782Z,10.20
2023-04-18T11:01:21.564Z,9.10
2023-04-18T11:02:22.513Z,10.20
2023-04-18T11:03:21.567Z,10.00
2023-04-18T11:04:21.520Z,13.10
2023-04-18T11:05:21.455Z,9.40
2023-04-18T11:06:21.442Z,11.30
2023-04-18T11:07:22.358Z,11.40
2023-04-18T11:08:21.417Z,10.90
2023-04-18T11:09:21.408Z,12.00
2023-04-18T11:10:21.425Z,11.10
2023-04-18T11:11:21.415Z,10.70
2023-04-18T11:12:21.373Z,10.20
2023-04-18T11:13:22.297Z,10.20
2023-04-18T11:14:21.327Z,11.30
2023-04-18T11:15:21.443Z,10.90
2023-04-18T11:16:21.407Z,11.70
2023-04-18T11:17:21.288Z,11.40
2023-04-18T11:18:21.283Z,11.10
2023-04-18T11:19:22.208Z,9.60
2023-04-18T11:20:21.273Z,9.30
2023-04-18T11:21:21.242Z,9.60
2023-04-18T11:22:21.230Z,9.60
2023-04-18T11:23:21.259Z,12.80
2023-04-18T11:24:21.224Z,13.20
2023-04-18T11:25:27.450Z,9.20
2023-04-18T11:26:21.210Z,9.60
2023-04-18T11:27:21.160Z,9.40
2023-04-18T11:28:21.307Z,10.30
2023-04-18T11:29:21.164Z,9.40
2023-04-18T11:30:21.135Z,8.40
2023-04-18T11:31:27.414Z,9.20
2023-04-18T11:32:21.235Z,9.30
2023-04-18T11:33:21.171Z,10.10
2023-04-18T11:34:21.077Z,9.20
2023-04-18T11:35:21.056Z,10.20
2023-04-18T11:36:21.073Z,10.60
2023-04-18T11:37:22.000Z,8.00
2023-04-18T11:38:22.248Z,8.00
2023-04-18T11:39:21.042Z,11.50
2023-04-18T11:40:21.025Z,10.30
2023-04-18T11:41:20.995Z,10.90
2023-04-18T11:42:21.904Z,9.30
2023-04-18T11:43:20.983Z,8.30
2023-04-18T11:44:20.960Z,9.60
2023-04-18T11:45:20.968Z,8.50
2023-04-18T11:46:20.955Z,12.30
2023-04-18T11:47:21.866Z,8.50
2023-04-18T11:48:20.888Z,12.50
2023-04-18T11:49:20.919Z,9.20
2023-04-18T11:50:20.907Z,10.60
2023-04-18T11:51:20.865Z,9.30
2023-04-18T11:52:21.771Z,9.80
2023-04-18T11:53:20.865Z,9.10
2023-04-18T11:54:20.853Z,11.00
2023-04-18T11:55:20.790Z,8.50
2023-04-18T11:56:20.799Z,10.70
2023-04-18T11:57:20.820Z,10.00
2023-04-18T11:58:21.698Z,11.40
2023-04-18T11:59:20.769Z,10.20
2023-04-18T12:00:20.753Z,11.90
2023-04-18T12:01:20.772Z,9.80
2023-04-18T12:02:20.920Z,9.00
2023-04-18T12:03:20.854Z,7.90
2023-04-18T12:04:22.030Z,8.70
2023-04-18T12:05:21.077Z,10.10
2023-04-18T12:06:20.701Z,7.80
2023-04-18T12:07:20.674Z,8.50
2023-04-18T12:08:20.738Z,10.70
2023-04-18T12:09:21.612Z,8.70
2023-04-18T12:10:20.604Z,8.10
2023-04-18T12:11:20.608Z,9.70
2023-04-18T12:12:20.595Z,9.20
2023-04-18T12:13:20.573Z,10.00
2023-04-18T12:14:21.512Z,12.20
2023-04-18T12:15:20.531Z,9.40
2023-04-18T12:16:20.585Z,8.10
2023-04-18T12:17:20.572Z,9.70
2023-04-18T12:18:20.533Z,9.10
2023-04-18T12:19:20.583Z,7.90
2023-04-18T12:20:21.437Z,10.30
2023-04-18T12:21:20.495Z,11.80
2023-04-18T12:22:20.447Z,10.10
2023-04-18T12:23:20.471Z,9.30
2023-04-18T12:24:20.422Z,8.60
2023-04-18T12:25:20.393Z,9.60
2023-04-18T12:26:21.324Z,11.50
2023-04-18T12:27:20.472Z,11.50
2023-04-18T12:28:21.301Z,13.50
2023-04-18T12:29:20.409Z,12.60
2023-04-18T12:30:20.365Z,10.00
2023-04-18T12:31:20.379Z,11.30
2023-04-18T12:32:21.388Z,10.10
2023-04-18T12:33:20.315Z,10.30
2023-04-18T12:34:20.305Z,9.50
2023-04-18T12:35:20.292Z,11.20
2023-04-18T12:36:20.279Z,11.80
2023-04-18T12:37:21.192Z,10.10
2023-04-18T12:38:20.245Z,11.00
2023-04-18T12:39:20.246Z,11.10
2023-04-18T12:40:20.265Z,10.70
2023-04-18T12:41:20.209Z,9.60
2023-04-18T12:42:20.197Z,9.80
2023-04-18T12:43:21.125Z,9.20
2023-04-18T12:44:20.227Z,9.50
2023-04-18T12:45:20.148Z,9.90
2023-04-18T12:46:20.177Z,10.00
2023-04-18T12:47:20.246Z,10.80
2023-04-18T12:48:20.112Z,9.30
2023-04-18T12:49:21.052Z,10.10
2023-04-18T12:50:20.095Z,10.20
2023-04-18T12:51:20.070Z,9.80
2023-04-18T12:52:20.070Z,11.20
2023-04-18T12:53:20.063Z,9.80
2023-04-18T12:54:20.960Z,11.80
2023-04-18T12:55:20.006Z,10.40
2023-04-18T12:56:20.002Z,13.20
2023-04-18T12:57:19.993Z,10.40